createdAt,value
2019-02-26T00:00:44.863Z,5.67
2019-02-26T00:05:02.881Z,5.53
2019-02-26T00:09:27.430Z,5.49
2019-02-26T00:13:34.589Z,5.76
2019-02-26T00:17:43.172Z,5.50
2019-02-26T00:21:49.623Z,5.05
2019-02-26T00:25:54.888Z,5.05
2019-02-26T00:30:00.224Z,5.41
2019-02-26T00:34:05.987Z,5.59
2019-02-26T00:38:25.863Z,5.60
2019-02-26T00:42:45.123Z,5.40
2019-02-26T00:46:53.593Z,5.81
2019-02-26T00:51:00.688Z,5.97
2019-02-26T00:55:07.189Z,6.12
2019-02-26T00:59:13.567Z,6.17
2019-02-26T01:03:18.732Z,5.92
2019-02-26T01:07:26.104Z,5.18
2019-02-26T01:11:50.174Z,5.15
2019-02-26T01:15:58.864Z,5.05
2019-02-26T01:20:05.745Z,4.90
2019-02-26T01:24:11.207Z,4.78
2019-02-26T01:28:22.627Z,4.85
2019-02-26T01:32:28.447Z,5.70
2019-02-26T01:36:33.523Z,6.04
2019-02-26T01:40:41.491Z,5.54
2019-02-26T01:44:45.389Z,5.37
2019-02-26T01:48:50.526Z,4.57
2019-02-26T01:52:56.773Z,4.57
2019-02-26T01:57:02.602Z,4.73
2019-02-26T02:01:09.977Z,4.79
2019-02-26T02:05:15.079Z,5.09
2019-02-26T02:09:20.935Z,5.27
2019-02-26T02:13:30.347Z,5.10
2019-02-26T02:17:35.511Z,5.18
2019-02-26T02:21:40.420Z,5.11
2019-02-26T02:25:45.690Z,5.07
2019-02-26T02:29:52.964Z,4.85
2019-02-26T02:33:57.504Z,5.17
2019-02-26T02:38:04.754Z,5.22
2019-02-26T02:42:10.873Z,5.25
2019-02-26T02:46:17.486Z,5.37
2019-02-26T02:50:23.512Z,5.39
2019-02-26T02:54:28.656Z,5.28
2019-02-26T02:58:33.618Z,5.25
2019-02-26T03:02:42.803Z,5.00
2019-02-26T03:06:45.831Z,5.00
2019-02-26T03:10:50.894Z,4.89
2019-02-26T03:14:56.781Z,4.81
2019-02-26T03:19:04.728Z,4.83
2019-02-26T03:23:12.369Z,4.56
2019-02-26T03:27:16.427Z,4.20
2019-02-26T03:31:28.859Z,4.37
2019-02-26T03:35:28.240Z,4.37
2019-02-26T03:39:34.271Z,4.01
2019-02-26T03:43:41.700Z,4.03
2019-02-26T03:47:46.572Z,4.09
2019-02-26T03:51:51.571Z,4.15
2019-02-26T03:55:59.626Z,4.57
2019-02-26T04:04:41.589Z,4.50
2019-02-26T04:08:48.564Z,4.45
2019-02-26T04:12:55.163Z,4.49
2019-02-26T04:17:03.601Z,4.78
2019-02-26T04:21:15.758Z,4.00
2019-02-26T04:25:27.018Z,3.89
2019-02-26T04:30:05.746Z,3.63
2019-02-26T04:40:20.864Z,3.39
2019-02-26T04:45:15.734Z,3.48
2019-02-26T04:49:21.089Z,3.69
2019-02-26T04:53:28.634Z,3.33
2019-02-26T04:57:34.574Z,3.50
2019-02-26T05:01:39.732Z,3.26
2019-02-26T05:05:44.889Z,3.14
2019-02-26T05:09:52.884Z,2.73
2019-02-26T05:13:56.852Z,2.58
2019-02-26T05:18:01.861Z,3.13
2019-02-26T05:22:07.172Z,3.28
2019-02-26T05:26:15.248Z,3.20
2019-02-26T05:30:22.133Z,3.01
2019-02-26T05:34:26.125Z,2.94
2019-02-26T05:38:32.998Z,2.47
2019-02-26T05:42:38.390Z,2.16
2019-02-26T05:46:43.585Z,2.16
2019-02-26T05:50:48.649Z,2.37
2019-02-26T05:54:53.835Z,2.28
2019-02-26T05:59:02.076Z,2.46
2019-02-26T06:03:09.006Z,2.64
2019-02-26T06:07:13.587Z,2.72
2019-02-26T06:11:18.738Z,2.58
2019-02-26T06:15:25.938Z,2.36
2019-02-26T06:19:47.526Z,2.28
2019-02-26T06:23:55.845Z,1.80
2019-02-26T06:28:04.446Z,1.77
2019-02-26T06:32:12.000Z,1.75
2019-02-26T06:36:18.533Z,1.76
2019-02-26T06:40:24.000Z,1.85
2019-02-26T06:44:29.157Z,1.88
2019-02-26T06:48:34.199Z,1.70
2019-02-26T06:52:40.358Z,2.93
2019-02-26T06:56:48.504Z,3.72
2019-02-26T07:00:55.497Z,2.32
2019-02-26T07:05:00.251Z,3.82
2019-02-26T07:09:06.248Z,3.24
2019-02-26T07:13:14.069Z,3.15
2019-02-26T07:17:19.572Z,4.00
2019-02-26T07:21:24.675Z,3.96
2019-02-26T07:25:31.808Z,4.27
2019-02-26T07:29:39.778Z,4.40
2019-02-26T07:33:43.383Z,4.50
2019-02-26T07:37:48.539Z,4.56
2019-02-26T07:41:54.407Z,4.66
2019-02-26T07:45:59.534Z,4.80
2019-02-26T07:50:06.670Z,5.19
2019-02-26T07:54:11.775Z,5.33
2019-02-26T07:58:17.927Z,6.19
2019-02-26T08:02:23.108Z,6.12
2019-02-26T08:06:29.357Z,6.24
2019-02-26T08:10:39.357Z,6.40
2019-02-26T08:14:42.933Z,6.53
2019-02-26T08:18:49.453Z,6.74
2019-02-26T08:22:56.398Z,6.72
2019-02-26T08:27:03.501Z,7.28
2019-02-26T08:31:11.269Z,8.78
2019-02-26T08:35:18.337Z,9.32
2019-02-26T08:39:23.061Z,10.42
2019-02-26T08:43:28.339Z,10.92
2019-02-26T08:47:33.408Z,11.58
2019-02-26T08:51:38.486Z,11.64
2019-02-26T08:55:43.658Z,11.21
2019-02-26T08:59:49.649Z,9.95
2019-02-26T09:03:57.858Z,10.01
2019-02-26T09:08:02.614Z,11.00
2019-02-26T09:12:07.790Z,10.75
2019-02-26T09:16:12.844Z,11.18
2019-02-26T09:20:18.069Z,11.30
2019-02-26T09:24:23.241Z,12.84
2019-02-26T09:28:29.462Z,12.90
2019-02-26T09:32:38.025Z,13.42
2019-02-26T09:36:42.591Z,12.72
2019-02-26T09:40:49.979Z,13.51
2019-02-26T09:44:55.453Z,13.81
2019-02-26T09:49:03.119Z,13.49
2019-02-26T09:53:08.052Z,13.63
2019-02-26T09:57:15.515Z,14.21
2019-02-26T10:01:20.024Z,14.12
2019-02-26T10:05:25.145Z,14.61
2019-02-26T10:09:32.965Z,15.50
2019-02-26T10:13:39.453Z,15.62
2019-02-26T10:17:45.190Z,14.34
2019-02-26T10:21:51.634Z,13.88
2019-02-26T10:25:57.914Z,13.58
2019-02-26T10:30:06.578Z,13.95
2019-02-26T10:34:15.109Z,14.60
2019-02-26T10:38:17.563Z,15.20
2019-02-26T10:42:23.007Z,16.54
2019-02-26T10:46:29.382Z,15.58
2019-02-26T10:50:37.274Z,16.53
2019-02-26T10:54:43.615Z,15.97
2019-02-26T10:58:49.937Z,17.10
2019-02-26T11:02:55.350Z,15.81
2019-02-26T11:07:02.394Z,16.02
2019-02-26T11:11:09.483Z,16.40
2019-02-26T11:15:14.822Z,17.66
2019-02-26T11:19:25.278Z,17.13
2019-02-26T11:23:31.148Z,17.00
2019-02-26T11:27:38.048Z,16.58
2019-02-26T11:31:44.803Z,16.55
2019-02-26T11:35:51.455Z,18.04
2019-02-26T11:39:57.703Z,19.12
2019-02-26T11:44:07.201Z,18.63
2019-02-26T11:48:10.311Z,18.61
2019-02-26T11:52:19.577Z,18.90
2019-02-26T11:56:25.135Z,17.32
2019-02-26T12:00:54.255Z,18.37
2019-02-26T12:05:00.046Z,17.81
2019-02-26T12:09:08.790Z,17.65
2019-02-26T12:13:17.178Z,17.71
2019-02-26T12:17:23.740Z,17.75
2019-02-26T12:21:29.930Z,18.19
2019-02-26T12:25:35.759Z,20.22
2019-02-26T12:29:43.657Z,19.18
2019-02-26T12:33:47.721Z,19.77
2019-02-26T12:37:55.719Z,19.83
2019-02-26T12:41:59.781Z,20.07
2019-02-26T12:46:08.300Z,19.55
2019-02-26T12:50:13.575Z,19.41
2019-02-26T12:54:18.683Z,20.06
2019-02-26T12:58:26.808Z,20.15
2019-02-26T13:02:31.057Z,20.72
2019-02-26T13:06:38.358Z,20.07
2019-02-26T13:10:47.378Z,19.40
2019-02-26T13:14:54.150Z,20.60
2019-02-26T13:19:00.777Z,20.27
2019-02-26T13:27:11.485Z,19.44
2019-02-26T13:31:21.397Z,20.21
2019-02-26T13:35:23.404Z,20.69
2019-02-26T13:39:36.818Z,20.06
2019-02-26T13:43:35.328Z,20.42
2019-02-26T13:47:40.947Z,21.37
2019-02-26T13:51:46.165Z,19.77
2019-02-26T13:55:51.306Z,20.59
2019-02-26T13:59:56.517Z,21.20
2019-02-26T14:04:01.745Z,21.32
2019-02-26T14:08:07.035Z,22.63
2019-02-26T14:12:12.106Z,21.55
2019-02-26T14:16:17.534Z,23.73
2019-02-26T14:20:23.314Z,24.09
2019-02-26T14:24:28.455Z,21.04
2019-02-26T14:28:33.601Z,21.49
2019-02-26T14:32:38.979Z,21.79
2019-02-26T14:36:44.059Z,23.25
2019-02-26T14:40:49.430Z,22.90
2019-02-26T14:44:54.616Z,25.33
2019-02-26T14:49:00.103Z,26.03
2019-02-26T14:53:05.234Z,22.45
2019-02-26T14:57:10.520Z,23.52
2019-02-26T15:01:15.664Z,22.20
2019-02-26T15:05:20.712Z,25.24
2019-02-26T15:09:25.918Z,21.49
2019-02-26T15:13:31.038Z,23.14
2019-02-26T15:17:36.440Z,21.18
2019-02-26T15:21:41.560Z,23.20
2019-02-26T15:25:46.999Z,22.41
2019-02-26T15:29:52.441Z,20.54
2019-02-26T15:33:57.543Z,21.88
2019-02-26T15:38:02.648Z,22.23
2019-02-26T15:42:07.844Z,21.48
2019-02-26T15:46:12.911Z,22.64
2019-02-26T15:50:18.007Z,21.31
2019-02-26T15:54:25.324Z,20.42
2019-02-26T15:58:30.974Z,20.81
2019-02-26T16:02:36.859Z,22.44
2019-02-26T16:06:42.095Z,21.46
2019-02-26T16:10:47.582Z,21.58
2019-02-26T16:14:52.709Z,22.66
2019-02-26T16:19:00.372Z,22.03
2019-02-26T16:23:04.861Z,20.84
2019-02-26T16:27:09.989Z,20.10
2019-02-26T16:31:15.153Z,22.42
2019-02-26T16:35:20.368Z,21.66
2019-02-26T16:39:27.178Z,22.36
2019-02-26T16:43:32.640Z,21.66
2019-02-26T16:47:38.060Z,23.00
2019-02-26T16:51:43.240Z,21.62
2019-02-26T16:55:48.962Z,21.40
2019-02-26T16:59:54.634Z,21.87
2019-02-26T17:03:59.911Z,19.75
2019-02-26T17:08:05.177Z,20.16
2019-02-26T17:12:10.307Z,19.37
2019-02-26T17:16:15.504Z,18.49
2019-02-26T17:20:22.530Z,17.09
2019-02-26T17:24:29.501Z,16.79
2019-02-26T17:28:34.401Z,16.78
2019-02-26T17:32:39.830Z,16.82
2019-02-26T17:36:45.083Z,16.46
2019-02-26T17:40:51.230Z,16.62
2019-02-26T17:44:56.360Z,16.22
2019-02-26T17:49:02.835Z,15.01
2019-02-26T17:53:08.472Z,15.00
2019-02-26T17:57:13.597Z,14.80
2019-02-26T18:01:19.037Z,15.14
2019-02-26T18:05:24.107Z,14.44
2019-02-26T18:09:29.333Z,14.44
2019-02-26T18:13:34.496Z,14.27
2019-02-26T18:17:39.682Z,14.14
2019-02-26T18:21:44.872Z,13.94
2019-02-26T18:25:49.864Z,13.95
2019-02-26T18:29:55.039Z,14.33
2019-02-26T18:34:00.060Z,13.88
2019-02-26T18:38:05.252Z,13.61
2019-02-26T18:42:10.475Z,13.69
2019-02-26T18:46:15.601Z,13.15
2019-02-26T18:50:20.975Z,13.41
2019-02-26T18:54:26.062Z,12.80
2019-02-26T18:58:31.554Z,12.13
2019-02-26T19:02:36.709Z,11.41
2019-02-26T19:06:41.847Z,11.11
2019-02-26T19:10:46.976Z,11.23
2019-02-26T19:14:52.197Z,11.59
2019-02-26T19:18:57.322Z,11.76
2019-02-26T19:23:03.504Z,11.04
2019-02-26T19:27:08.690Z,11.07
2019-02-26T19:31:13.973Z,11.15
2019-02-26T19:35:19.179Z,10.85
2019-02-26T19:39:24.368Z,11.53
2019-02-26T19:43:30.528Z,10.66
2019-02-26T19:47:35.871Z,10.72
2019-02-26T19:51:41.150Z,10.39
2019-02-26T19:55:49.951Z,10.55
2019-02-26T19:59:56.148Z,10.95
2019-02-26T20:04:03.908Z,10.80
2019-02-26T20:08:08.995Z,10.15
2019-02-26T20:12:15.485Z,9.79
2019-02-26T20:16:20.968Z,9.81
2019-02-26T20:20:26.422Z,9.94
2019-02-26T20:24:31.674Z,9.73
2019-02-26T20:28:36.979Z,9.71
2019-02-26T20:32:42.082Z,9.42
2019-02-26T20:36:48.779Z,9.53
2019-02-26T20:40:55.018Z,10.12
2019-02-26T20:45:00.265Z,9.44
2019-02-26T20:49:05.400Z,9.31
2019-02-26T20:53:10.665Z,9.57
2019-02-26T20:57:15.784Z,9.21
2019-02-26T21:01:20.897Z,8.97
2019-02-26T21:05:26.021Z,8.78
2019-02-26T21:09:31.210Z,9.00
2019-02-26T21:13:36.413Z,8.74
2019-02-26T21:17:41.573Z,8.39
2019-02-26T21:21:48.870Z,8.48
2019-02-26T21:25:53.817Z,8.57
2019-02-26T21:29:59.311Z,8.28
2019-02-26T21:34:04.539Z,7.96
2019-02-26T21:38:09.694Z,8.66
2019-02-26T21:42:14.795Z,8.55
2019-02-26T21:46:22.567Z,8.32
2019-02-26T21:50:27.061Z,7.74
2019-02-26T21:54:32.273Z,7.88
2019-02-26T21:58:37.298Z,7.49
2019-02-26T22:02:44.374Z,7.49
2019-02-26T22:06:49.612Z,7.29
2019-02-26T22:10:54.731Z,6.84
2019-02-26T22:14:59.975Z,6.57
2019-02-26T22:19:07.080Z,6.89
2019-02-26T22:23:11.928Z,6.75
2019-02-26T22:27:17.078Z,6.93
2019-02-26T22:31:22.207Z,7.30
2019-02-26T22:35:27.381Z,7.40
2019-02-26T22:39:32.635Z,7.09
2019-02-26T22:43:37.878Z,7.05
2019-02-26T22:47:44.394Z,7.44
2019-02-26T22:51:49.834Z,7.02
2019-02-26T22:55:55.007Z,6.85
2019-02-26T23:00:00.122Z,6.95
2019-02-26T23:04:06.786Z,6.61
2019-02-26T23:08:12.534Z,6.57
2019-02-26T23:12:18.240Z,6.41
2019-02-26T23:16:24.328Z,6.42
2019-02-26T23:20:29.753Z,6.18
2019-02-26T23:24:35.241Z,6.20
2019-02-26T23:28:40.533Z,6.29
2019-02-26T23:32:45.864Z,6.37
2019-02-26T23:36:53.988Z,6.43
2019-02-26T23:41:00.390Z,6.53
2019-02-26T23:45:06.344Z,6.22
2019-02-26T23:49:13.823Z,6.13
2019-02-26T23:53:18.439Z,6.01
2019-02-26T23:57:25.069Z,5.84
